Time;durP1;ratioP1;P1;durP2;ratioP2;P2;SDS_P1;SDS_P2;PMS_P1;PMS_P2;Temp;Humidity;BMP_temperature;BMP_pressure;BME280_temperature;BME280_humidity;BME280_pressure;Samples;Min_cycle;Max_cycle;Signal;HPM_P1;HPM_P2
2023/08/02 00:02:12;;;;;;;11.23;3.78;;;;;;;;;;4989024;28;20214;-58
2023/08/02 00:04:37;;;;;;;9.27;3.50;;;;;;;;;;4989593;28;20554;-59
2023/08/02 00:07:03;;;;;;;12.95;3.47;;;;;;;;;;4987100;28;20232;-59
2023/08/02 00:09:28;;;;;;;11.98;3.65;;;;;;;;;;4981060;28;20263;-58
2023/08/02 00:11:53;;;;;;;11.30;3.70;;;;;;;;;;4989702;28;20305;-58
2023/08/02 00:14:19;;;;;;;11.50;4.15;;;;;;;;;;4987682;28;20212;-59
2023/08/02 00:16:44;;;;;;;12.40;4.05;;;;;;;;;;4988486;28;20606;-58
2023/08/02 00:19:09;;;;;;;11.57;3.85;;;;;;;;;;4988787;28;20209;-59
2023/08/02 00:21:34;;;;;;;14.75;3.97;;;;;;;;;;4989116;28;20220;-59
2023/08/02 00:24:00;;;;;;;9.27;3.47;;;;;;;;;;4987450;28;20213;-58
2023/08/02 00:26:25;;;;;;;14.30;3.95;;;;;;;;;;4989028;28;20232;-58
2023/08/02 00:28:50;;;;;;;13.70;3.92;;;;;;;;;;4970097;28;20643;-59
2023/08/02 00:31:16;;;;;;;22.00;4.60;;;;;;;;;;4986399;28;20217;-59
2023/08/02 00:33:41;;;;;;;13.00;3.85;;;;;;;;;;4988877;28;20267;-59
2023/08/02 00:36:06;;;;;;;10.30;3.33;;;;;;;;;;4988914;28;20213;-59
2023/08/02 00:38:32;;;;;;;11.10;3.50;;;;;;;;;;4969855;28;20213;-58
2023/08/02 00:41:02;;;;;;;14.20;4.10;;;;;;;;;;4988480;28;20215;-58
2023/08/02 00:43:27;;;;;;;12.18;3.83;;;;;;;;;;4971136;28;20209;-58
2023/08/02 00:45:52;;;;;;;13.05;3.70;;;;;;;;;;4988746;28;20244;-59
2023/08/02 00:48:18;;;;;;;12.30;4.45;;;;;;;;;;4986294;28;20252;-59
2023/08/02 00:50:44;;;;;;;13.65;4.28;;;;;;;;;;4988231;28;20629;-58
2023/08/02 00:53:09;;;;;;;12.50;4.20;;;;;;;;;;4988724;28;20687;-59
2023/08/02 00:55:35;;;;;;;14.48;4.47;;;;;;;;;;4987236;28;20221;-59
2023/08/02 00:58:00;;;;;;;13.18;4.50;;;;;;;;;;4988307;28;20640;-58
2023/08/02 01:00:25;;;;;;;16.42;5.22;;;;;;;;;;4988760;28;21726;-58
2023/08/02 01:02:50;;;;;;;17.08;5.18;;;;;;;;;;4987561;28;20223;-58
2023/08/02 01:05:16;;;;;;;12.88;4.85;;;;;;;;;;4986395;28;20228;-59
2023/08/02 01:07:46;;;;;;;14.73;4.82;;;;;;;;;;4971730;28;20593;-59
2023/08/02 01:10:13;;;;;;;17.38;4.97;;;;;;;;;;4988561;28;20265;-58
2023/08/02 01:12:39;;;;;;;13.02;4.70;;;;;;;;;;4986181;28;20216;-59
2023/08/02 01:15:04;;;;;;;13.90;4.38;;;;;;;;;;4988201;28;20300;-59
2023/08/02 01:17:30;;;;;;;14.55;5.10;;;;;;;;;;4989099;28;20288;-58
2023/08/02 01:20:00;;;;;;;12.50;4.63;;;;;;;;;;4986749;28;20699;-59
2023/08/02 01:22:26;;;;;;;20.10;5.35;;;;;;;;;;4987175;28;20692;-59
2023/08/02 01:24:51;;;;;;;14.80;4.60;;;;;;;;;;4988758;28;20229;-58
2023/08/02 01:27:17;;;;;;;12.20;4.63;;;;;;;;;;4987667;28;20209;-59
2023/08/02 01:29:45;;;;;;;14.25;5.28;;;;;;;;;;4986149;28;20236;-59
2023/08/02 01:32:10;;;;;;;16.63;4.93;;;;;;;;;;4988439;28;20206;-58
2023/08/02 01:34:35;;;;;;;24.80;4.60;;;;;;;;;;4970304;28;20209;-59
2023/08/02 01:37:00;;;;;;;15.32;4.18;;;;;;;;;;4986343;28;20692;-59
2023/08/02 01:39:26;;;;;;;15.00;5.00;;;;;;;;;;4988226;28;20224;-59
2023/08/02 01:41:51;;;;;;;15.85;4.47;;;;;;;;;;4987751;28;20233;-59
2023/08/02 01:44:16;;;;;;;12.95;4.60;;;;;;;;;;4987204;28;20670;-59
2023/08/02 01:46:42;;;;;;;12.63;4.63;;;;;;;;;;4986631;28;20245;-59
2023/08/02 01:49:07;;;;;;;10.50;4.22;;;;;;;;;;4987113;28;20268;-58
2023/08/02 01:51:32;;;;;;;10.95;4.45;;;;;;;;;;4988679;28;20257;-59
2023/08/02 01:53:57;;;;;;;11.88;4.35;;;;;;;;;;4985566;28;20209;-58
2023/08/02 01:56:23;;;;;;;12.85;5.47;;;;;;;;;;4987791;28;20218;-58
2023/08/02 01:58:48;;;;;;;14.95;4.82;;;;;;;;;;4988548;28;20221;-58
2023/08/02 02:01:13;;;;;;;13.00;4.78;;;;;;;;;;4985523;28;20760;-59
2023/08/02 02:03:38;;;;;;;14.25;4.70;;;;;;;;;;4987631;28;20217;-59
2023/08/02 02:06:04;;;;;;;39.25;5.35;;;;;;;;;;4987530;28;21757;-59
2023/08/02 02:08:29;;;;;;;10.85;4.28;;;;;;;;;;4987232;28;20216;-59
2023/08/02 02:10:55;;;;;;;9.32;3.70;;;;;;;;;;4986578;28;20693;-58
2023/08/02 02:13:21;;;;;;;9.63;4.00;;;;;;;;;;4988068;28;20260;-58
2023/08/02 02:15:46;;;;;;;10.05;4.38;;;;;;;;;;4989683;28;20205;-58
2023/08/02 02:18:11;;;;;;;10.95;4.38;;;;;;;;;;4989136;28;20221;-59
2023/08/02 02:20:36;;;;;;;9.98;3.95;;;;;;;;;;4991774;28;20348;-58
2023/08/02 02:23:02;;;;;;;10.75;4.40;;;;;;;;;;4990778;28;20239;-59
2023/08/02 02:25:27;;;;;;;10.85;3.95;;;;;;;;;;4983700;28;20363;-59
2023/08/02 02:27:52;;;;;;;10.60;3.75;;;;;;;;;;4977284;28;20213;-59
2023/08/02 02:30:18;;;;;;;8.00;4.05;;;;;;;;;;4973639;28;20423;-59
2023/08/02 02:32:43;;;;;;;7.88;3.92;;;;;;;;;;4973739;28;20220;-59
2023/08/02 02:35:12;;;;;;;9.85;4.07;;;;;;;;;;4975433;28;20914;-59
2023/08/02 02:37:37;;;;;;;12.68;4.10;;;;;;;;;;4981263;28;20213;-59
2023/08/02 02:40:03;;;;;;;16.10;4.57;;;;;;;;;;4981342;28;20224;-59
2023/08/02 02:42:28;;;;;;;9.23;3.85;;;;;;;;;;4979899;28;20324;-59
2023/08/02 02:44:53;;;;;;;10.35;3.80;;;;;;;;;;4980376;28;20316;-59
2023/08/02 02:47:18;;;;;;;7.88;4.18;;;;;;;;;;4981054;28;20268;-59
2023/08/02 02:49:44;;;;;;;11.98;4.03;;;;;;;;;;4979315;28;20217;-59
2023/08/02 02:52:10;;;;;;;8.60;3.53;;;;;;;;;;4971843;28;20220;-59
2023/08/02 02:54:35;;;;;;;15.45;4.20;;;;;;;;;;4974140;28;20236;-59
2023/08/02 02:57:00;;;;;;;10.95;4.38;;;;;;;;;;4974414;28;20248;-60
2023/08/02 02:59:26;;;;;;;10.77;3.92;;;;;;;;;;4978639;28;20688;-59
2023/08/02 03:01:51;;;;;;;7.82;4.03;;;;;;;;;;4981860;28;20225;-59
2023/08/02 03:04:16;;;;;;;10.43;4.18;;;;;;;;;;4980946;28;20311;-59
2023/08/02 03:06:41;;;;;;;11.73;3.92;;;;;;;;;;4979212;28;20233;-59
2023/08/02 03:09:07;;;;;;;16.60;4.40;;;;;;;;;;4980575;28;20224;-60
2023/08/02 03:11:32;;;;;;;11.30;3.97;;;;;;;;;;4980604;28;20213;-59
2023/08/02 03:13:57;;;;;;;7.57;3.65;;;;;;;;;;4974767;28;20244;-59
2023/08/02 03:16:22;;;;;;;18.40;4.15;;;;;;;;;;4971726;28;20583;-59
2023/08/02 03:18:49;;;;;;;16.23;4.30;;;;;;;;;;4973183;28;20332;-59
2023/08/02 03:21:14;;;;;;;9.70;3.97;;;;;;;;;;4978869;28;20225;-59
2023/08/02 03:23:41;;;;;;;9.27;3.80;;;;;;;;;;4978891;28;20228;-59
2023/08/02 03:26:06;;;;;;;14.10;4.10;;;;;;;;;;4979990;28;20243;-59
2023/08/02 03:28:32;;;;;;;11.77;3.88;;;;;;;;;;4987575;28;20752;-59
2023/08/02 03:30:57;;;;;;;8.57;3.55;;;;;;;;;;4988657;28;20220;-59
2023/08/02 03:33:22;;;;;;;9.90;4.38;;;;;;;;;;4988691;28;20712;-59
2023/08/02 03:35:47;;;;;;;11.45;3.97;;;;;;;;;;4990443;28;20228;-59
2023/08/02 03:38:13;;;;;;;9.20;3.70;;;;;;;;;;4989215;28;20213;-59
2023/08/02 03:40:38;;;;;;;10.52;3.97;;;;;;;;;;4988471;28;20878;-59
2023/08/02 03:43:03;;;;;;;10.73;4.22;;;;;;;;;;4989610;28;20223;-59
2023/08/02 03:45:29;;;;;;;9.35;4.35;;;;;;;;;;4990084;28;20221;-59
2023/08/02 03:47:54;;;;;;;7.85;4.32;;;;;;;;;;4985649;28;20267;-59
2023/08/02 03:50:19;;;;;;;11.90;4.35;;;;;;;;;;4978574;28;22236;-59
2023/08/02 03:52:45;;;;;;;10.20;4.63;;;;;;;;;;4980624;28;20965;-59
2023/08/02 03:55:10;;;;;;;10.73;3.95;;;;;;;;;;4977840;28;20201;-59
2023/08/02 03:57:35;;;;;;;13.52;4.72;;;;;;;;;;4973998;28;20217;-59
2023/08/02 04:00:00;;;;;;;9.07;4.28;;;;;;;;;;4972348;28;20209;-59
2023/08/02 04:02:26;;;;;;;81.20;10.30;;;;;;;;;;4971179;28;20244;-59
2023/08/02 04:04:51;;;;;;;33.20;5.68;;;;;;;;;;4976449;28;20831;-59
2023/08/02 04:07:16;;;;;;;23.50;5.45;;;;;;;;;;4979524;28;20287;-59
2023/08/02 04:09:42;;;;;;;17.52;4.72;;;;;;;;;;4979781;28;20598;-59
2023/08/02 04:12:07;;;;;;;17.45;4.43;;;;;;;;;;4977549;28;20574;-59
2023/08/02 04:14:32;;;;;;;9.32;3.92;;;;;;;;;;4979380;28;20677;-59
2023/08/02 04:16:58;;;;;;;10.45;4.10;;;;;;;;;;4979874;28;20256;-59
2023/08/02 04:19:24;;;;;;;12.88;4.18;;;;;;;;;;4979738;28;20725;-59
2023/08/02 04:21:50;;;;;;;10.70;4.40;;;;;;;;;;4974741;28;20225;-59
2023/08/02 04:24:15;;;;;;;13.02;4.15;;;;;;;;;;4973983;28;20227;-59
2023/08/02 04:26:40;;;;;;;13.85;4.22;;;;;;;;;;4977937;28;20235;-59
2023/08/02 04:29:06;;;;;;;19.50;4.60;;;;;;;;;;4977935;28;20213;-59
2023/08/02 04:31:31;;;;;;;11.50;4.50;;;;;;;;;;4980651;28;20802;-59
2023/08/02 04:33:56;;;;;;;32.17;5.72;;;;;;;;;;4978292;28;20224;-59
2023/08/02 04:36:21;;;;;;;13.30;4.05;;;;;;;;;;4978109;28;20220;-59
2023/08/02 04:38:47;;;;;;;20.13;4.82;;;;;;;;;;4978871;28;20217;-59
2023/08/02 04:41:14;;;;;;;10.32;4.30;;;;;;;;;;4977983;28;20680;-59
2023/08/02 04:43:39;;;;;;;9.98;3.85;;;;;;;;;;4969862;28;20206;-59
2023/08/02 04:46:04;;;;;;;12.48;4.10;;;;;;;;;;4971479;28;20256;-59
2023/08/02 04:48:29;;;;;;;19.70;4.00;;;;;;;;;;4971665;28;20231;-59
2023/08/02 04:50:55;;;;;;;18.00;4.13;;;;;;;;;;4976901;28;20235;-59
2023/08/02 04:53:20;;;;;;;27.35;4.47;;;;;;;;;;4978584;28;20224;-59
2023/08/02 04:55:45;;;;;;;7.75;2.95;;;;;;;;;;4979519;28;20208;-59
2023/08/02 04:58:11;;;;;;;7.97;3.78;;;;;;;;;;4976759;28;20224;-59
2023/08/02 05:00:36;;;;;;;10.93;3.70;;;;;;;;;;4978417;28;20221;-59
2023/08/02 05:03:01;;;;;;;10.45;3.22;;;;;;;;;;4978719;28;20213;-59
2023/08/02 05:05:26;;;;;;;8.15;3.55;;;;;;;;;;4972726;28;20228;-59
2023/08/02 05:07:52;;;;;;;7.82;3.60;;;;;;;;;;4969899;28;20220;-59
2023/08/02 05:10:17;;;;;;;8.00;3.40;;;;;;;;;;4970946;28;20257;-59
2023/08/02 05:12:43;;;;;;;10.02;3.42;;;;;;;;;;4976936;28;20271;-59
2023/08/02 05:15:08;;;;;;;6.55;3.28;;;;;;;;;;4976345;28;20567;-59
2023/08/02 05:17:33;;;;;;;11.23;3.70;;;;;;;;;;4979440;28;20283;-59
2023/08/02 05:19:58;;;;;;;10.50;3.90;;;;;;;;;;4978255;28;20224;-59
2023/08/02 05:22:24;;;;;;;8.60;3.28;;;;;;;;;;4977832;28;20808;-59
2023/08/02 05:24:50;;;;;;;7.07;2.83;;;;;;;;;;4977348;28;20229;-59
2023/08/02 05:27:15;;;;;;;21.60;3.67;;;;;;;;;;4975119;28;20232;-59
2023/08/02 05:29:40;;;;;;;10.02;3.20;;;;;;;;;;4971280;28;20866;-59
2023/08/02 05:32:05;;;;;;;8.43;3.25;;;;;;;;;;4972110;28;20221;-59
2023/08/02 05:34:31;;;;;;;10.55;3.47;;;;;;;;;;4988575;28;20555;-59
2023/08/02 05:36:56;;;;;;;15.68;3.20;;;;;;;;;;4988429;28;20217;-60
2023/08/02 05:39:21;;;;;;;9.48;3.35;;;;;;;;;;4985340;28;20276;-59
2023/08/02 05:41:47;;;;;;;7.25;2.95;;;;;;;;;;4987625;28;20613;-59
2023/08/02 05:44:12;;;;;;;8.80;3.20;;;;;;;;;;4987318;28;21923;-60
2023/08/02 05:46:37;;;;;;;12.25;3.13;;;;;;;;;;4987107;28;20229;-60
2023/08/02 05:49:03;;;;;;;9.67;3.20;;;;;;;;;;4986253;28;20350;-60
2023/08/02 05:51:28;;;;;;;19.80;3.80;;;;;;;;;;4991634;28;20263;-59
2023/08/02 05:53:53;;;;;;;9.88;3.05;;;;;;;;;;4991267;28;20213;-59
2023/08/02 05:56:19;;;;;;;7.53;2.90;;;;;;;;;;4988925;28;20248;-59
2023/08/02 05:58:44;;;;;;;7.00;2.80;;;;;;;;;;4991523;28;20212;-59
2023/08/02 06:01:09;;;;;;;6.45;2.60;;;;;;;;;;4990685;28;20213;-59
2023/08/02 06:03:35;;;;;;;12.68;3.15;;;;;;;;;;4990373;28;20213;-59
2023/08/02 06:06:00;;;;;;;7.25;2.80;;;;;;;;;;4991302;28;20333;-59
2023/08/02 06:08:25;;;;;;;33.15;3.85;;;;;;;;;;4990578;28;20217;-59
2023/08/02 06:10:50;;;;;;;7.97;2.80;;;;;;;;;;4991044;28;20559;-59
2023/08/02 06:13:16;;;;;;;8.23;2.83;;;;;;;;;;4989300;28;20217;-59
2023/08/02 06:15:41;;;;;;;7.47;3.33;;;;;;;;;;4991064;28;20607;-59
2023/08/02 06:18:06;;;;;;;10.35;3.38;;;;;;;;;;4990977;28;20215;-60
2023/08/02 06:20:31;;;;;;;8.70;3.20;;;;;;;;;;4989221;28;20213;-59
2023/08/02 06:22:57;;;;;;;8.40;3.53;;;;;;;;;;4990929;28;20239;-59
2023/08/02 06:25:22;;;;;;;11.82;3.13;;;;;;;;;;4991099;28;20272;-60
2023/08/02 06:27:47;;;;;;;16.63;4.18;;;;;;;;;;4989657;28;20213;-60
2023/08/02 06:30:13;;;;;;;8.63;3.63;;;;;;;;;;4971269;28;20300;-60
2023/08/02 06:32:38;;;;;;;7.47;3.05;;;;;;;;;;4973850;28;20212;-60
2023/08/02 06:35:04;;;;;;;7.95;2.90;;;;;;;;;;4990505;28;20614;-60
2023/08/02 06:37:29;;;;;;;8.23;3.55;;;;;;;;;;4988980;28;20311;-59
2023/08/02 06:39:54;;;;;;;7.43;3.17;;;;;;;;;;4990998;28;20205;-61
2023/08/02 06:42:20;;;;;;;9.23;3.05;;;;;;;;;;4990066;28;20225;-60
2023/08/02 06:44:46;;;;;;;6.80;3.55;;;;;;;;;;4988316;28;20704;-60
2023/08/02 06:47:11;;;;;;;12.27;3.75;;;;;;;;;;4990279;28;20233;-60
2023/08/02 06:49:37;;;;;;;21.80;4.40;;;;;;;;;;4990491;28;20547;-60
2023/08/02 06:52:02;;;;;;;14.15;4.20;;;;;;;;;;4989189;28;20598;-60
2023/08/02 06:54:27;;;;;;;10.30;3.78;;;;;;;;;;4989920;28;20677;-60
2023/08/02 06:56:53;;;;;;;14.10;3.67;;;;;;;;;;4990356;28;20209;-60
2023/08/02 06:59:18;;;;;;;9.00;3.63;;;;;;;;;;4989609;28;20221;-60
2023/08/02 07:01:44;;;;;;;11.52;3.65;;;;;;;;;;4988465;28;20217;-60
2023/08/02 07:04:09;;;;;;;12.15;4.10;;;;;;;;;;4972423;28;20690;-60
2023/08/02 07:06:35;;;;;;;12.00;3.88;;;;;;;;;;4990494;28;20588;-60
2023/08/02 07:09:00;;;;;;;9.10;3.80;;;;;;;;;;4988690;28;20292;-60
2023/08/02 07:11:25;;;;;;;8.23;3.30;;;;;;;;;;4989425;28;20680;-60
2023/08/02 07:13:50;;;;;;;8.18;3.95;;;;;;;;;;4990121;28;20217;-60
2023/08/02 07:16:16;;;;;;;9.23;3.67;;;;;;;;;;4989140;28;20312;-60
2023/08/02 07:18:41;;;;;;;7.53;3.40;;;;;;;;;;4988817;28;20676;-60
2023/08/02 07:21:07;;;;;;;7.13;3.50;;;;;;;;;;4989977;28;20244;-60
2023/08/02 07:23:32;;;;;;;5.32;3.20;;;;;;;;;;4989537;28;20217;-60
2023/08/02 07:25:57;;;;;;;8.55;3.75;;;;;;;;;;4987199;28;20248;-60
2023/08/02 07:28:23;;;;;;;7.53;3.85;;;;;;;;;;4989587;28;20213;-60
2023/08/02 07:30:48;;;;;;;8.82;4.00;;;;;;;;;;4990467;28;20213;-60
2023/08/02 07:33:13;;;;;;;8.30;3.75;;;;;;;;;;4987170;28;20575;-60
2023/08/02 07:35:39;;;;;;;6.30;3.80;;;;;;;;;;4989852;28;20213;-61
2023/08/02 07:38:04;;;;;;;10.75;3.53;;;;;;;;;;4989605;28;20610;-60
2023/08/02 07:40:29;;;;;;;8.68;3.83;;;;;;;;;;4981963;28;20213;-60
2023/08/02 07:42:55;;;;;;;9.00;3.83;;;;;;;;;;4974412;28;21479;-60
2023/08/02 07:45:20;;;;;;;9.73;4.10;;;;;;;;;;4975438;28;20324;-60
2023/08/02 07:47:45;;;;;;;8.27;3.38;;;;;;;;;;5004612;23;20299;-60
2023/08/02 07:50:11;;;;;;;5.93;3.65;;;;;;;;;;4961605;28;20237;-60
2023/08/02 07:52:36;;;;;;;9.77;3.75;;;;;;;;;;4964448;28;20214;-61
2023/08/02 07:55:01;;;;;;;6.10;3.47;;;;;;;;;;4964176;28;20332;-60
2023/08/02 07:57:27;;;;;;;7.82;3.40;;;;;;;;;;4961567;28;20217;-60
2023/08/02 07:59:52;;;;;;;8.10;4.20;;;;;;;;;;4953043;28;20664;-61
2023/08/02 08:02:18;;;;;;;7.82;3.55;;;;;;;;;;4963977;28;20213;-61
2023/08/02 08:04:43;;;;;;;7.65;3.78;;;;;;;;;;4955339;28;20210;-61
2023/08/02 08:07:09;;;;;;;5.75;2.80;;;;;;;;;;4954695;28;20249;-61
2023/08/02 08:09:35;;;;;;;4.55;2.85;;;;;;;;;;4957449;28;20218;-60
2023/08/02 08:12:02;;;;;;;4.65;3.03;;;;;;;;;;4961512;28;20233;-60
2023/08/02 08:14:27;;;;;;;5.07;3.05;;;;;;;;;;4960743;28;20959;-61
2023/08/02 08:16:52;;;;;;;18.42;3.83;;;;;;;;;;4964381;28;20229;-61
2023/08/02 08:19:18;;;;;;;4.60;2.88;;;;;;;;;;4964132;28;20224;-61
2023/08/02 08:21:43;;;;;;;5.93;2.70;;;;;;;;;;4962839;28;20206;-61
2023/08/02 08:24:10;;;;;;;6.07;2.60;;;;;;;;;;4962963;28;20214;-61
2023/08/02 08:26:35;;;;;;;15.15;3.15;;;;;;;;;;4960532;28;20233;-61
2023/08/02 08:29:00;;;;;;;5.53;2.13;;;;;;;;;;4956089;28;20225;-60
2023/08/02 08:31:28;;;;;;;3.72;2.13;;;;;;;;;;4959615;28;20210;-60
2023/08/02 08:33:54;;;;;;;10.43;2.42;;;;;;;;;;4959884;28;20261;-60
2023/08/02 08:36:20;;;;;;;3.35;2.00;;;;;;;;;;4962819;28;20308;-60
2023/08/02 08:38:46;;;;;;;3.63;2.30;;;;;;;;;;4961527;28;20493;-60
2023/08/02 08:41:12;;;;;;;2.72;1.92;;;;;;;;;;4963707;28;20210;-60
2023/08/02 08:43:38;;;;;;;4.63;1.95;;;;;;;;;;4963258;28;20277;-61
2023/08/02 08:46:03;;;;;;;3.03;1.60;;;;;;;;;;4962554;28;20566;-60
2023/08/02 08:48:28;;;;;;;2.42;1.60;;;;;;;;;;4953840;28;21043;-59
2023/08/02 08:50:54;;;;;;;20.42;2.65;;;;;;;;;;4954101;28;20217;-60
2023/08/02 08:53:22;;;;;;;3.00;1.63;;;;;;;;;;4956371;28;21058;-60
2023/08/02 08:55:49;;;;;;;4.82;1.73;;;;;;;;;;4955988;28;20268;-60
2023/08/02 08:58:14;;;;;;;2.10;1.38;;;;;;;;;;4962838;28;20253;-60
2023/08/02 09:00:39;;;;;;;8.82;1.92;;;;;;;;;;4963436;28;20295;-60
2023/08/02 09:03:05;;;;;;;3.33;1.60;;;;;;;;;;4961147;28;20224;-60
2023/08/02 09:05:30;;;;;;;4.60;1.70;;;;;;;;;;4962992;28;20226;-59
2023/08/02 09:07:57;;;;;;;1.70;1.30;;;;;;;;;;4963981;28;20229;-59
2023/08/02 09:10:23;;;;;;;6.47;1.70;;;;;;;;;;4961826;28;20221;-59
2023/08/02 09:12:48;;;;;;;2.30;1.55;;;;;;;;;;4954818;28;20626;-60
2023/08/02 09:15:14;;;;;;;3.22;1.40;;;;;;;;;;4956248;28;20217;-60
2023/08/02 09:17:46;;;;;;;2.28;1.33;;;;;;;;;;4956443;28;20312;-60
2023/08/02 09:20:11;;;;;;;2.10;1.40;;;;;;;;;;4960817;28;20205;-60
2023/08/02 09:22:37;;;;;;;7.35;1.30;;;;;;;;;;4963075;28;20221;-60
2023/08/02 09:25:04;;;;;;;3.13;1.30;;;;;;;;;;4962255;28;20218;-60
2023/08/02 09:27:30;;;;;;;6.00;1.42;;;;;;;;;;4961221;28;20205;-59
2023/08/02 09:29:55;;;;;;;3.10;1.48;;;;;;;;;;4955875;28;20216;-59
2023/08/02 09:32:21;;;;;;;3.05;1.38;;;;;;;;;;4962063;28;20234;-59
2023/08/02 09:34:47;;;;;;;3.28;1.30;;;;;;;;;;4957190;28;20213;-60
2023/08/02 09:37:13;;;;;;;2.30;1.20;;;;;;;;;;4953128;28;20245;-59
2023/08/02 09:39:39;;;;;;;8.88;1.65;;;;;;;;;;4955865;28;20591;-59
2023/08/02 09:42:11;;;;;;;3.10;1.20;;;;;;;;;;4960710;28;20276;-60
2023/08/02 09:44:36;;;;;;;4.63;1.50;;;;;;;;;;4961497;28;20216;-60
2023/08/02 09:47:08;;;;;;;14.15;1.80;;;;;;;;;;4960893;28;20233;-59
2023/08/02 09:49:34;;;;;;;2.03;1.10;;;;;;;;;;4962989;28;20228;-60
2023/08/02 09:51:59;;;;;;;7.65;1.88;;;;;;;;;;4964061;28;20229;-59
2023/08/02 09:54:24;;;;;;;2.50;1.20;;;;;;;;;;4959992;28;20742;-59
2023/08/02 09:56:50;;;;;;;5.43;1.40;;;;;;;;;;4960508;28;20222;-60
2023/08/02 09:59:15;;;;;;;19.10;2.42;;;;;;;;;;4953710;28;20906;-59
2023/08/02 10:01:40;;;;;;;2.83;1.23;;;;;;;;;;4945709;28;20326;-59
2023/08/02 10:04:06;;;;;;;3.95;1.30;;;;;;;;;;4962154;28;20217;-59
2023/08/02 10:06:32;;;;;;;3.45;1.30;;;;;;;;;;4965529;28;20335;-59
2023/08/02 10:08:59;;;;;;;5.80;1.77;;;;;;;;;;4962342;28;20228;-59
2023/08/02 10:11:25;;;;;;;4.82;1.98;;;;;;;;;;4963298;28;20221;-59
2023/08/02 10:13:50;;;;;;;1.98;1.40;;;;;;;;;;4954280;28;20581;-59
2023/08/02 10:16:16;;;;;;;2.97;1.70;;;;;;;;;;4961256;28;20309;-59
2023/08/02 10:18:41;;;;;;;36.25;3.13;;;;;;;;;;4961052;28;20218;-59
2023/08/02 10:21:07;;;;;;;5.78;2.30;;;;;;;;;;4951457;28;20218;-59
2023/08/02 10:23:32;;;;;;;18.23;2.88;;;;;;;;;;4944378;28;20222;-59
2023/08/02 10:25:57;;;;;;;14.45;2.35;;;;;;;;;;4955598;28;20241;-60
2023/08/02 10:28:23;;;;;;;11.82;2.42;;;;;;;;;;4958813;28;21298;-60
2023/08/02 10:30:48;;;;;;;14.05;2.65;;;;;;;;;;4961377;28;20225;-59
2023/08/02 10:33:14;;;;;;;15.40;2.58;;;;;;;;;;4961261;28;20236;-59
2023/08/02 10:35:53;;;;;;;29.80;3.78;;;;;;;;;;4963216;28;20232;-59
2023/08/02 10:38:18;;;;;;;14.93;3.03;;;;;;;;;;4964692;28;20643;-59
2023/08/02 10:41:04;;;;;;;40.65;4.57;;;;;;;;;;4960079;28;20238;-60
2023/08/02 10:43:29;;;;;;;5.10;2.90;;;;;;;;;;4957876;28;20240;-59
2023/08/02 10:46:13;;;;;;;4.53;2.50;;;;;;;;;;4963499;28;20225;-60
2023/08/02 10:48:38;;;;;;;3.80;2.60;;;;;;;;;;4965916;28;20284;-59
2023/08/02 10:51:04;;;;;;;8.45;3.20;;;;;;;;;;4971171;28;20213;-60
2023/08/02 10:53:29;;;;;;;44.78;4.80;;;;;;;;;;4972078;28;20246;-60
2023/08/02 10:56:01;;;;;;;8.57;3.28;;;;;;;;;;4970681;28;20570;-60
2023/08/02 10:58:27;;;;;;;4.75;2.55;;;;;;;;;;4970052;28;20240;-60
2023/08/02 11:01:07;;;;;;;7.60;2.70;;;;;;;;;;4971780;28;20257;-60
2023/08/02 11:03:35;;;;;;;6.53;2.80;;;;;;;;;;4970866;28;20209;-60
2023/08/02 11:06:01;;;;;;;5.20;2.60;;;;;;;;;;4969844;28;20222;-60
2023/08/02 11:08:26;;;;;;;2.75;2.33;;;;;;;;;;4971192;28;20222;-60
2023/08/02 11:10:52;;;;;;;26.50;4.15;;;;;;;;;;4971168;28;20229;-60
2023/08/02 11:13:18;;;;;;;20.17;3.10;;;;;;;;;;4970630;28;20637;-60
2023/08/02 11:15:43;;;;;;;5.85;2.83;;;;;;;;;;4969854;28;20300;-59
2023/08/02 11:18:08;;;;;;;29.27;4.05;;;;;;;;;;4970075;28;20712;-60
2023/08/02 11:20:37;;;;;;;10.38;2.60;;;;;;;;;;4970465;28;20209;-60
2023/08/02 11:23:02;;;;;;;5.22;2.20;;;;;;;;;;4968774;28;20209;-60
2023/08/02 11:25:28;;;;;;;7.18;2.40;;;;;;;;;;4970697;28;20233;-59
2023/08/02 11:28:01;;;;;;;3.22;2.03;;;;;;;;;;4971769;28;20224;-59
2023/08/02 11:30:26;;;;;;;2.40;1.60;;;;;;;;;;4970685;28;20221;-59
2023/08/02 11:32:51;;;;;;;9.77;2.53;;;;;;;;;;4969074;28;20222;-60
2023/08/02 11:35:17;;;;;;;2.13;1.80;;;;;;;;;;4970896;28;20221;-60
2023/08/02 11:37:42;;;;;;;3.38;1.40;;;;;;;;;;4971212;28;20225;-60
2023/08/02 11:40:09;;;;;;;2.28;1.60;;;;;;;;;;4968376;28;20677;-60
2023/08/02 11:42:37;;;;;;;6.30;1.67;;;;;;;;;;4964523;28;20882;-60
2023/08/02 11:45:02;;;;;;;99.35;7.90;;;;;;;;;;4968961;28;20210;-60
2023/08/02 11:47:34;;;;;;;4.50;1.58;;;;;;;;;;4969238;28;20210;-60
2023/08/02 11:49:59;;;;;;;3.35;1.50;;;;;;;;;;4969616;28;20349;-60
2023/08/02 11:52:25;;;;;;;1.90;1.60;;;;;;;;;;4970439;28;20292;-62
2023/08/02 11:54:51;;;;;;;3.42;2.00;;;;;;;;;;4970087;28;20228;-61
2023/08/02 11:57:16;;;;;;;34.30;4.65;;;;;;;;;;4966327;28;20210;-60
2023/08/02 11:59:44;;;;;;;9.93;2.50;;;;;;;;;;4968848;28;20691;-60
2023/08/02 12:02:25;;;;;;;23.08;3.38;;;;;;;;;;4968441;28;20214;-60
2023/08/02 12:04:50;;;;;;;11.60;2.80;;;;;;;;;;4969412;28;20296;-60
2023/08/02 12:07:27;;;;;;;4.68;2.70;;;;;;;;;;4968392;28;20228;-61
2023/08/02 12:09:52;;;;;;;5.80;2.58;;;;;;;;;;4970752;28;20213;-61
2023/08/02 12:12:17;;;;;;;8.20;3.10;;;;;;;;;;4970211;28;20590;-60
2023/08/02 12:14:43;;;;;;;6.35;2.80;;;;;;;;;;4967655;28;20222;-60
2023/08/02 12:17:16;;;;;;;18.35;3.42;;;;;;;;;;4969789;28;20285;-60
2023/08/02 12:19:41;;;;;;;10.63;2.65;;;;;;;;;;4970463;28;20212;-60
2023/08/02 12:22:07;;;;;;;9.57;2.33;;;;;;;;;;4968382;28;20361;-60
2023/08/02 12:24:32;;;;;;;15.05;2.33;;;;;;;;;;4969175;28;20206;-60
2023/08/02 12:27:10;;;;;;;17.35;2.03;;;;;;;;;;4969988;28;20230;-60
2023/08/02 12:29:35;;;;;;;5.70;1.70;;;;;;;;;;4969690;28;20545;-60
2023/08/02 12:32:01;;;;;;;17.23;2.03;;;;;;;;;;4967602;28;20212;-60
2023/08/02 12:34:27;;;;;;;17.65;2.10;;;;;;;;;;4969087;28;20210;-60
2023/08/02 12:36:53;;;;;;;5.63;1.45;;;;;;;;;;4970073;28;20222;-60
2023/08/02 12:39:19;;;;;;;4.28;1.30;;;;;;;;;;4968748;28;20265;-59
2023/08/02 12:41:44;;;;;;;3.75;1.48;;;;;;;;;;4968783;28;20214;-60
2023/08/02 12:44:10;;;;;;;4.95;1.67;;;;;;;;;;4976333;28;20221;-60
2023/08/02 12:46:36;;;;;;;4.30;1.35;;;;;;;;;;4969187;28;20321;-60
2023/08/02 12:49:01;;;;;;;18.55;1.90;;;;;;;;;;4966480;28;20596;-60
2023/08/02 12:51:26;;;;;;;14.45;1.88;;;;;;;;;;4969749;28;20633;-59
2023/08/02 12:53:51;;;;;;;1.60;0.90;;;;;;;;;;4970039;28;20748;-60
2023/08/02 12:56:17;;;;;;;4.38;1.40;;;;;;;;;;4966928;28;20756;-59
2023/08/02 12:58:42;;;;;;;3.78;1.50;;;;;;;;;;4968895;28;20218;-59
2023/08/02 13:01:07;;;;;;;6.43;1.40;;;;;;;;;;4969171;28;20265;-59
2023/08/02 13:03:33;;;;;;;5.25;1.60;;;;;;;;;;4967926;28;20634;-59
2023/08/02 13:05:58;;;;;;;24.70;2.58;;;;;;;;;;4968349;28;20773;-59
2023/08/02 13:08:23;;;;;;;8.95;1.55;;;;;;;;;;4969148;28;20221;-59
2023/08/02 13:10:49;;;;;;;10.00;1.80;;;;;;;;;;4969217;28;20272;-59
2023/08/02 13:13:14;;;;;;;16.33;2.40;;;;;;;;;;4965676;28;20213;-59
2023/08/02 13:15:40;;;;;;;54.65;4.53;;;;;;;;;;4969535;28;20214;-59
2023/08/02 13:18:05;;;;;;;11.40;1.65;;;;;;;;;;4968567;28;20218;-59
2023/08/02 13:20:30;;;;;;;13.23;2.03;;;;;;;;;;4967795;28;20588;-59
2023/08/02 13:22:56;;;;;;;7.38;1.80;;;;;;;;;;4968877;28;20237;-60
2023/08/02 13:25:21;;;;;;;7.93;1.58;;;;;;;;;;4968664;28;20253;-60
2023/08/02 13:27:46;;;;;;;17.85;2.47;;;;;;;;;;4968838;28;20324;-60
2023/08/02 13:30:12;;;;;;;38.88;4.30;;;;;;;;;;4966662;28;20198;-59
2023/08/02 13:32:37;;;;;;;22.80;2.28;;;;;;;;;;4969296;28;20220;-60
2023/08/02 13:35:03;;;;;;;8.88;1.63;;;;;;;;;;4968982;28;20225;-60
2023/08/02 13:37:28;;;;;;;8.77;1.80;;;;;;;;;;4966462;28;20230;-60
2023/08/02 13:39:55;;;;;;;11.57;1.88;;;;;;;;;;4969362;28;20229;-60
2023/08/02 13:42:23;;;;;;;15.02;2.20;;;;;;;;;;4975811;28;20336;-60
2023/08/02 13:44:48;;;;;;;12.98;2.30;;;;;;;;;;4967401;28;20217;-60
2023/08/02 13:47:13;;;;;;;12.77;2.20;;;;;;;;;;4967388;28;20256;-60
2023/08/02 13:49:39;;;;;;;50.13;4.68;;;;;;;;;;4969150;28;20222;-60
2023/08/02 13:52:04;;;;;;;6.65;1.52;;;;;;;;;;4967937;28;20619;-60
2023/08/02 13:54:30;;;;;;;8.40;1.80;;;;;;;;;;4966716;28;20312;-59
2023/08/02 13:56:56;;;;;;;10.82;2.00;;;;;;;;;;4969354;28;20289;-60
2023/08/02 13:59:21;;;;;;;20.98;2.45;;;;;;;;;;4968161;28;20304;-60
2023/08/02 14:01:46;;;;;;;114.40;8.52;;;;;;;;;;4967119;28;20296;-60
2023/08/02 14:04:11;;;;;;;17.05;2.53;;;;;;;;;;4968306;28;20780;-60
2023/08/02 14:06:37;;;;;;;8.43;1.67;;;;;;;;;;4968243;28;20221;-60
2023/08/02 14:09:03;;;;;;;19.58;2.78;;;;;;;;;;4967095;28;20214;-60
2023/08/02 14:11:28;;;;;;;15.77;1.98;;;;;;;;;;4969420;28;20225;-60
2023/08/02 14:13:53;;;;;;;11.43;1.88;;;;;;;;;;4971859;28;20220;-60
2023/08/02 14:16:19;;;;;;;22.65;2.17;;;;;;;;;;4972108;28;20214;-60
2023/08/02 14:18:44;;;;;;;7.82;1.33;;;;;;;;;;4970400;28;20692;-60
2023/08/02 14:21:09;;;;;;;6.38;1.10;;;;;;;;;;4971641;28;20225;-60
2023/08/02 14:23:35;;;;;;;9.65;1.48;;;;;;;;;;4972581;28;20221;-60
2023/08/02 14:26:00;;;;;;;46.22;4.78;;;;;;;;;;4970510;28;20233;-60
2023/08/02 14:28:26;;;;;;;45.83;3.33;;;;;;;;;;4970005;28;20210;-60